createdAt,value
2017-02-28T01:07:47.568Z,9.82
2017-02-28T02:24:17.899Z,9.53
2017-02-28T02:27:23.690Z,9.55
2017-02-28T02:30:37.659Z,9.55
2017-02-28T02:33:36.076Z,9.52
2017-02-28T03:19:43.139Z,9.03
2017-02-28T03:22:45.756Z,9.00
2017-02-28T03:28:57.880Z,8.98
2017-02-28T03:38:05.240Z,8.90
2017-02-28T03:41:09.280Z,8.86
2017-02-28T03:44:22.065Z,8.84
2017-02-28T03:47:19.051Z,8.81
2017-02-28T03:50:28.386Z,8.79
2017-02-28T03:53:38.653Z,8.77
2017-02-28T03:56:38.691Z,8.76
2017-02-28T04:27:24.322Z,8.62
2017-02-28T04:36:33.746Z,8.61
2017-02-28T04:39:41.032Z,8.60
2017-02-28T04:42:46.017Z,8.59
2017-02-28T04:45:48.774Z,8.59
2017-02-28T04:48:48.163Z,8.57
2017-02-28T04:51:59.883Z,8.56
2017-02-28T04:54:56.938Z,8.55
2017-02-28T04:58:02.986Z,8.52
2017-02-28T05:01:16.785Z,8.51
2017-02-28T05:04:17.237Z,8.50
2017-02-28T05:07:21.595Z,8.48
2017-02-28T05:10:24.700Z,8.45
2017-02-28T05:13:38.432Z,8.45
2017-02-28T05:16:43.869Z,8.44
2017-02-28T05:19:49.181Z,8.42
2017-02-28T05:22:54.734Z,8.38
2017-02-28T05:44:22.195Z,8.28
2017-02-28T06:18:08.721Z,7.63
2017-02-28T06:33:30.330Z,7.87
2017-02-28T06:36:34.644Z,7.99
2017-02-28T07:01:10.259Z,7.71
2017-02-28T07:04:14.537Z,7.65
2017-02-28T07:07:19.897Z,7.60
2017-02-28T07:10:24.838Z,7.58
2017-02-28T07:13:30.246Z,7.56
2017-02-28T07:16:34.369Z,7.57
2017-02-28T07:19:32.606Z,7.55
2017-02-28T07:25:51.166Z,7.47
2017-02-28T07:28:56.454Z,7.42
2017-02-28T07:35:08.588Z,7.34
2017-02-28T07:41:15.738Z,7.29
2017-02-28T07:44:21.138Z,7.30
2017-02-28T07:47:26.468Z,7.34
2017-02-28T07:53:36.602Z,7.36
2017-02-28T07:56:43.023Z,7.38
2017-02-28T07:59:47.664Z,7.42
2017-02-28T08:02:42.071Z,7.43
2017-02-28T12:58:11.773Z,9.22
2017-02-28T13:01:16.791Z,9.20
2017-02-28T13:04:22.319Z,9.19
2017-02-28T13:07:27.015Z,9.26
2017-02-28T13:10:32.404Z,9.39
2017-02-28T13:13:37.832Z,9.48
2017-02-28T13:16:34.953Z,9.42
2017-02-28T13:32:06.637Z,9.26
2017-02-28T13:35:11.925Z,9.24
2017-02-28T13:38:17.521Z,9.23
2017-02-28T13:41:22.897Z,9.34
2017-02-28T13:44:28.789Z,9.94
2017-02-28T13:47:33.483Z,9.95
2017-02-28T13:50:38.791Z,9.91
2017-02-28T13:53:44.367Z,9.94
2017-02-28T13:56:49.890Z,9.94
2017-02-28T13:59:54.915Z,9.90
2017-02-28T14:02:52.286Z,9.80
2017-02-28T14:55:16.414Z,10.21
2017-02-28T14:58:21.731Z,10.45
2017-02-28T15:01:22.571Z,10.65
2017-02-28T15:04:33.022Z,10.69
2017-02-28T15:07:38.553Z,10.72
2017-02-28T15:10:44.013Z,10.77
2017-02-28T15:13:48.931Z,10.75
2017-02-28T15:16:54.718Z,10.68
2017-02-28T15:20:00.122Z,10.68
2017-02-28T15:23:05.878Z,10.61
2017-02-28T15:50:44.796Z,9.66
2017-02-28T17:16:34.504Z,8.61
2017-02-28T17:28:49.633Z,8.55
2017-02-28T17:38:01.416Z,8.47
2017-02-28T19:34:38.538Z,7.61
2017-02-28T19:40:47.526Z,7.56
2017-02-28T21:16:01.783Z,6.77
2017-02-28T23:00:19.128Z,5.42
2017-02-28T23:06:27.291Z,5.38
